Kaufman, TX (75142)

8:59 AM CST on December 03, 2016 (GMT -0600)
Star Brand Ranch | | Change Station

Elev 430 ft 32.59 °N, 96.35 °W | Updated 12 seconds ago

Light Rain
Light Rain Mist
48.6 °F
Feels Like 45 °F
N
8.3
Wind Variable Wind from ENE
Gusts 9.8 mph

Today
High -- | Low -- °F
--% Chance of Precip.
Yesterday
High -- | Low -- °F
Precip. -- in
Pressure 30.10 in
Visibility 4.0 miles
Clouds Mostly Cloudy 900 ft
Mostly Cloudy 1300 ft
Overcast 1800 ft
Windchill 45 °F
Dew Point 48 °F
Humidity 99%
Rainfall 0.63 in
Snow Depth Not available.
7:11 AM 5:19 PM
Waxing Crescent, 15% visible
METAR KTRL 031453Z AUTO 06014KT 4SM -RA BR BKN009 BKN013 OVC018 09/07 A3010 RMK AO2 SLP191 P0018 60030 T00890072 51001
Pressure 30.10 in
Visibility 4.0 miles
Clouds Mostly Cloudy 900 ft
Mostly Cloudy 1300 ft
Overcast 1800 ft
Windchill 45 °F
Dew Point 48 °F
Humidity 99%
Rainfall 0.63 in
Snow Depth Not available.
7:11 AM 5:19 PM
Waxing Crescent, 15% visible
METAR KTRL 031453Z AUTO 06014KT 4SM -RA BR BKN009 BKN013 OVC018 09/07 A3010 RMK AO2 SLP191 P0018 60030 T00890072 51001

10-Day Weather Forecast

Almanac

Astronomy

Dec. 03, 2016 Rise Set
Actual Time
Civil Twilight
Nautical Twilight
Astronomical Twilight
Moon
Length of Visible Light
Length of Day
Tomorrow will be .
, % of the Moon is Illuminated

Today's Extremes

State Highs State Lows

Community

WunderPhotos

Upload Photos

1,955,449 photos uploaded!

WunderBlog® & News

Nearby

Air Quality

  Air Quality AQ Index Pollutant
Not available.

Snow Depth

Station Depth Elevation

Earthquake Activity

City Distance Mag. Time & Date
Minimum magnitude displayed is 2.5.

Coastal Water Temperatures

Place Temperature

Stations

Nearby Weather Stations

Station Location Temp. Windchill Dew Point Humidity Wind Precip. Elev Updated Type
                   

Watches & Warnings

There are currently no watches in effect.